createdAt,value
2018-02-24T00:00:02.133Z,1009.16
2018-02-24T00:01:16.676Z,1009.22
2018-02-24T00:02:30.770Z,1009.3
2018-02-24T00:03:45.303Z,1009.18
2018-02-24T00:04:59.335Z,1009.31
2018-02-24T00:06:13.687Z,1009.31
2018-02-24T00:07:27.455Z,1009.28
2018-02-24T00:08:41.296Z,1009.26
2018-02-24T00:09:55.311Z,1009.31
2018-02-24T00:11:09.339Z,1009.31
2018-02-24T00:12:23.834Z,1009.31
2018-02-24T00:13:37.380Z,1009.48
2018-02-24T00:14:51.656Z,1009.35
2018-02-24T00:16:05.910Z,1009.55
2018-02-24T00:17:20.236Z,1009.38
2018-02-24T00:18:34.011Z,1009.39
2018-02-24T00:19:48.252Z,1009.41
2018-02-24T00:21:02.536Z,1009.37
2018-02-24T00:22:16.811Z,1009.43
2018-02-24T00:23:30.563Z,1009.39
2018-02-24T00:24:44.811Z,1009.41
2018-02-24T00:25:59.056Z,1009.32
2018-02-24T00:27:13.583Z,1009.35
2018-02-24T00:28:27.826Z,1009.39
2018-02-24T00:29:41.871Z,1009.35
2018-02-24T00:30:56.211Z,1009.33
2018-02-24T00:32:10.428Z,1009.43
2018-02-24T00:33:24.431Z,1009.42
2018-02-24T00:34:38.241Z,1009.39
2018-02-24T00:35:52.750Z,1009.35
2018-02-24T00:37:06.521Z,1009.31
2018-02-24T00:38:20.566Z,1009.3
2018-02-24T00:39:34.551Z,1009.46
2018-02-24T00:40:48.302Z,1009.38
2018-02-24T00:42:02.340Z,1009.24
2018-02-24T00:43:16.340Z,1009.51
2018-02-24T00:44:30.109Z,1009.3
2018-02-24T00:45:44.117Z,1009.29
2018-02-24T00:46:58.626Z,1009.28
2018-02-24T00:48:12.888Z,1009.29
2018-02-24T00:49:27.126Z,1009.34
2018-02-24T00:50:41.173Z,1009.2
2018-02-24T00:51:55.697Z,1009.26
2018-02-24T00:53:09.944Z,1009.37
2018-02-24T00:54:24.187Z,1009.31
2018-02-24T00:55:37.946Z,1009.4
2018-02-24T00:56:51.956Z,1009.38
2018-02-24T00:58:05.984Z,1009.45
2018-02-24T00:59:20.254Z,1009.36
2018-02-24T01:00:34.486Z,1009.5
2018-02-24T01:01:48.475Z,1009.35
2018-02-24T01:03:02.768Z,1009.37
2018-02-24T01:04:16.896Z,1009.42
2018-02-24T01:05:31.404Z,1009.37
2018-02-24T01:06:44.947Z,1009.31
2018-02-24T01:07:59.177Z,1009.28
2018-02-24T01:09:13.435Z,1009.37
2018-02-24T01:11:56.081Z,1009.38
2018-02-24T01:13:10.529Z,1009.26
2018-02-24T01:14:24.281Z,1009.32
2018-02-24T01:15:38.574Z,1009.33
2018-02-24T01:16:52.572Z,1009.35
2018-02-24T01:18:06.381Z,1009.26
2018-02-24T01:19:20.444Z,1009.33
2018-02-24T01:20:34.668Z,1009.28
2018-02-24T01:21:49.168Z,1009.39
2018-02-24T01:23:03.422Z,1009.33
2018-02-24T01:24:17.900Z,1009.36
2018-02-24T01:25:31.934Z,1009.27
2018-02-24T01:26:46.442Z,1009.41
2018-02-24T01:28:00.413Z,1009.29
2018-02-24T01:29:14.668Z,1009.38
2018-02-24T01:30:28.679Z,1009.36
2018-02-24T01:31:43.398Z,1009.35
2018-02-24T01:32:57.389Z,1009.36
2018-02-24T01:34:11.677Z,1009.47
2018-02-24T01:35:26.430Z,1009.41
2018-02-24T01:36:41.249Z,1009.46
2018-02-24T01:37:55.787Z,1009.56
2018-02-24T01:39:10.028Z,1009.53
2018-02-24T01:40:24.487Z,1009.45
2018-02-24T01:41:38.998Z,1009.54
2018-02-24T01:42:53.327Z,1009.41
2018-02-24T01:44:07.082Z,1009.46
2018-02-24T01:45:21.296Z,1009.36
2018-02-24T01:46:35.760Z,1009.31
2018-02-24T01:47:50.249Z,1009.33
2018-02-24T01:49:03.985Z,1009.43
2018-02-24T01:50:18.204Z,1009.34
2018-02-24T01:51:32.207Z,1009.4
2018-02-24T01:52:46.156Z,1009.43
2018-02-24T01:53:59.656Z,1009.41
2018-02-24T01:55:13.155Z,1009.46
2018-02-24T01:56:27.657Z,1009.45
2018-02-24T01:57:41.651Z,1009.4
2018-02-24T01:58:56.138Z,1009.47
2018-02-24T02:01:39.341Z,1009.39
2018-02-24T02:02:53.424Z,1009.44
2018-02-24T02:04:07.408Z,1009.34
2018-02-24T02:05:21.859Z,1009.35
2018-02-24T02:06:36.144Z,1009.38
2018-02-24T02:07:50.384Z,1009.37
2018-02-24T02:09:04.728Z,1009.39
2018-02-24T02:10:19.194Z,1009.51
2018-02-24T02:11:33.683Z,1009.53
2018-02-24T02:12:47.905Z,1009.52
2018-02-24T02:14:02.354Z,1009.47
2018-02-24T02:15:16.348Z,1009.61
2018-02-24T02:16:30.561Z,1009.44
2018-02-24T02:17:44.545Z,1009.48
2018-02-24T02:18:58.274Z,1009.49
2018-02-24T02:20:12.266Z,1009.41
2018-02-24T02:21:26.265Z,1009.42
2018-02-24T02:22:40.016Z,1009.57
2018-02-24T02:23:54.025Z,1009.53
2018-02-24T02:25:08.477Z,1009.45
2018-02-24T02:26:22.210Z,1009.45
2018-02-24T02:27:36.436Z,1009.53
2018-02-24T02:28:50.444Z,1009.51
2018-02-24T02:30:04.158Z,1009.51
2018-02-24T02:31:18.677Z,1009.52
2018-02-24T02:32:32.908Z,1009.44
2018-02-24T02:33:47.129Z,1009.48
2018-02-24T02:35:01.397Z,1009.42
2018-02-24T02:36:14.690Z,1009.45
2018-02-24T02:37:28.971Z,1009.5
2018-02-24T02:38:43.439Z,1009.36
2018-02-24T02:39:58.157Z,1009.37
2018-02-24T02:41:12.437Z,1009.31
2018-02-24T02:42:26.295Z,1009.32
2018-02-24T02:43:40.558Z,1009.39
2018-02-24T02:44:54.769Z,1009.26
2018-02-24T02:46:08.774Z,1009.39
2018-02-24T02:47:23.018Z,1009.42
2018-02-24T02:48:37.547Z,1009.42
2018-02-24T02:49:52.096Z,1009.57
2018-02-24T02:51:06.817Z,1009.3
2018-02-24T02:52:21.302Z,1009.44
2018-02-24T02:53:35.333Z,1009.48
2018-02-24T02:54:49.813Z,1009.37
2018-02-24T02:56:03.837Z,1009.41
2018-02-24T02:57:17.829Z,1009.43
2018-02-24T02:58:32.324Z,1009.43
2018-02-24T02:59:46.562Z,1009.38
2018-02-24T03:01:00.347Z,1009.3
2018-02-24T03:02:14.112Z,1009.44
2018-02-24T03:03:28.583Z,1009.44
2018-02-24T03:04:42.610Z,1009.4
2018-02-24T03:05:56.819Z,1009.49
2018-02-24T03:07:10.342Z,1009.54
2018-02-24T03:08:24.590Z,1009.43
2018-02-24T03:09:39.070Z,1009.43
2018-02-24T03:10:53.329Z,1009.51
2018-02-24T03:12:07.774Z,1009.45
2018-02-24T03:13:22.008Z,1009.47
2018-02-24T03:14:36.499Z,1009.39
2018-02-24T03:15:50.587Z,1009.47
2018-02-24T03:17:04.371Z,1009.42
2018-02-24T03:18:18.422Z,1009.28
2018-02-24T03:19:32.652Z,1009.38
2018-02-24T03:20:47.145Z,1009.37
2018-02-24T03:22:00.629Z,1009.47
2018-02-24T03:23:14.410Z,1009.47
2018-02-24T03:24:28.403Z,1009.37
2018-02-24T03:25:42.399Z,1009.37
2018-02-24T03:26:56.132Z,1009.54
2018-02-24T03:28:10.596Z,1009.46
2018-02-24T03:29:24.596Z,1009.44
2018-02-24T03:30:39.051Z,1009.54
2018-02-24T03:31:53.532Z,1009.49
2018-02-24T03:33:07.764Z,1009.6
2018-02-24T03:34:21.987Z,1009.5
2018-02-24T03:35:35.488Z,1009.52
2018-02-24T03:36:50.193Z,1009.55
2018-02-24T03:38:03.921Z,1009.5
2018-02-24T03:39:17.874Z,1009.62
2018-02-24T03:40:32.099Z,1009.63
2018-02-24T03:41:45.837Z,1009.67
2018-02-24T03:43:00.299Z,1009.7
2018-02-24T03:44:14.064Z,1009.63
2018-02-24T03:45:28.523Z,1009.68
2018-02-24T03:46:42.503Z,1009.71
2018-02-24T03:47:56.706Z,1009.76
2018-02-24T03:49:11.093Z,1009.78
2018-02-24T03:50:24.572Z,1009.77
2018-02-24T03:51:39.018Z,1009.79
2018-02-24T03:52:53.237Z,1009.76
2018-02-24T03:54:07.242Z,1009.93
2018-02-24T03:55:21.210Z,1009.96
2018-02-24T03:56:35.213Z,1010.01
2018-02-24T03:57:49.432Z,1009.85
2018-02-24T03:59:03.416Z,1010.01
2018-02-24T04:00:17.666Z,1009.87
2018-02-24T04:01:31.869Z,1009.97
2018-02-24T04:02:46.072Z,1009.81
2018-02-24T04:03:59.553Z,1010.01
2018-02-24T04:05:14.010Z,1009.95
2018-02-24T04:06:27.993Z,1009.93
2018-02-24T04:07:42.077Z,1010.01
2018-02-24T04:08:55.567Z,1009.81
2018-02-24T04:10:09.546Z,1009.81
2018-02-24T04:11:24.276Z,1009.97
2018-02-24T04:12:38.733Z,1009.97
2018-02-24T04:13:52.961Z,1009.87
2018-02-24T04:15:06.956Z,1009.75
2018-02-24T04:16:21.259Z,1009.86
2018-02-24T04:17:36.099Z,1009.78
2018-02-24T04:18:49.845Z,1009.89
2018-02-24T04:20:03.860Z,1009.83
2018-02-24T04:21:17.844Z,1009.76
2018-02-24T04:22:43.844Z,1009.88
2018-02-24T04:23:57.586Z,1009.82
2018-02-24T04:25:11.889Z,1009.85
2018-02-24T04:26:26.354Z,1009.88
2018-02-24T04:27:41.080Z,1009.86
2018-02-24T04:28:55.307Z,1009.9
2018-02-24T04:30:08.813Z,1009.86
2018-02-24T04:31:22.571Z,1009.92
2018-02-24T04:32:36.051Z,1009.86
2018-02-24T04:33:50.540Z,1009.86
2018-02-24T04:35:04.529Z,1009.87
2018-02-24T04:36:18.992Z,1009.99
2018-02-24T04:37:33.464Z,1009.84
2018-02-24T04:38:47.446Z,1009.81
2018-02-24T04:40:01.900Z,1009.92
2018-02-24T04:41:15.409Z,1009.77
2018-02-24T04:42:29.168Z,1009.85
2018-02-24T04:43:43.607Z,1009.97
2018-02-24T04:44:56.856Z,1009.92
2018-02-24T04:46:11.096Z,1009.88
2018-02-24T04:47:25.077Z,1009.94
2018-02-24T04:48:39.066Z,1009.81
2018-02-24T04:49:53.303Z,1009.91
2018-02-24T04:51:07.311Z,1009.78
2018-02-24T04:52:22.029Z,1009.9
2018-02-24T04:53:36.032Z,1009.8
2018-02-24T04:54:50.038Z,1009.78
2018-02-24T04:56:04.161Z,1009.96
2018-02-24T04:57:18.374Z,1009.88
2018-02-24T04:58:32.600Z,1009.82
2018-02-24T04:59:46.611Z,1010
2018-02-24T05:01:00.597Z,1009.82
2018-02-24T05:02:13.833Z,1009.88
2018-02-24T05:03:28.319Z,1009.86
2018-02-24T05:04:42.553Z,1009.95
2018-02-24T05:05:56.063Z,1010.05
2018-02-24T05:07:10.279Z,1009.88
2018-02-24T05:08:24.533Z,1009.95
2018-02-24T05:09:38.051Z,1009.98
2018-02-24T05:10:52.522Z,1009.86
2018-02-24T05:12:07.035Z,1009.9
2018-02-24T05:13:21.482Z,1010.12
2018-02-24T05:14:35.448Z,1010.11
2018-02-24T05:15:49.193Z,1009.86
2018-02-24T05:17:03.183Z,1009.96
2018-02-24T05:18:17.410Z,1009.91
2018-02-24T05:19:32.173Z,1010.09
2018-02-24T05:20:46.177Z,1010.01
2018-02-24T05:22:00.899Z,1009.98
2018-02-24T05:23:14.616Z,1010.09
2018-02-24T05:24:28.817Z,1010.09
2018-02-24T05:25:43.039Z,1010.03
2018-02-24T05:26:57.265Z,1010.03
2018-02-24T05:28:11.756Z,1010.1
2018-02-24T05:29:26.323Z,1010
2018-02-24T05:30:40.064Z,1010.04
2018-02-24T05:31:54.288Z,1010
2018-02-24T05:33:08.046Z,1010.33
2018-02-24T05:34:22.769Z,1010.27
2018-02-24T05:35:37.255Z,1010.16
2018-02-24T05:36:51.593Z,1010.12
2018-02-24T05:38:05.426Z,1010.18
2018-02-24T05:39:19.961Z,1010.12
2018-02-24T05:40:33.728Z,1010.37
2018-02-24T05:41:47.476Z,1010.15
2018-02-24T05:43:01.741Z,1010.18
2018-02-24T05:44:15.735Z,1010.27
2018-02-24T05:45:29.763Z,1010.29
2018-02-24T05:46:43.780Z,1010.3
2018-02-24T05:47:58.023Z,1010.27
2018-02-24T05:49:11.794Z,1010.38
2018-02-24T05:50:26.010Z,1010.3
2018-02-24T05:51:40.284Z,1010.34
2018-02-24T05:52:55.015Z,1010.31
2018-02-24T05:54:09.049Z,1010.38
2018-02-24T05:55:23.335Z,1010.33
2018-02-24T05:56:36.834Z,1010.48
2018-02-24T05:57:50.862Z,1010.49
2018-02-24T05:59:05.340Z,1010.44
2018-02-24T06:00:19.821Z,1010.49
2018-02-24T06:01:34.038Z,1010.39
2018-02-24T06:02:48.423Z,1010.49
2018-02-24T06:04:02.675Z,1010.54
2018-02-24T06:05:17.144Z,1010.52
2018-02-24T06:06:31.607Z,1010.49
2018-02-24T06:07:45.833Z,1010.72
2018-02-24T06:09:00.323Z,1010.6
2018-02-24T06:10:14.312Z,1010.51
2018-02-24T06:11:28.326Z,1010.61
2018-02-24T06:12:41.589Z,1010.59
2018-02-24T06:13:55.308Z,1010.7
2018-02-24T06:15:09.028Z,1010.73
2018-02-24T06:16:23.272Z,1010.69
2018-02-24T06:17:37.277Z,1010.75
2018-02-24T06:18:51.510Z,1010.71
2018-02-24T06:20:05.723Z,1010.77
2018-02-24T06:21:19.991Z,1010.76
2018-02-24T06:22:34.171Z,1010.7
2018-02-24T06:23:48.149Z,1010.77
2018-02-24T06:25:02.655Z,1010.81
2018-02-24T06:26:16.942Z,1010.87
2018-02-24T06:27:31.200Z,1010.71
2018-02-24T06:28:45.190Z,1010.86
2018-02-24T06:29:59.176Z,1010.8
2018-02-24T06:31:13.184Z,1010.77
2018-02-24T06:32:27.184Z,1010.92
2018-02-24T06:33:41.228Z,1010.87
2018-02-24T06:34:54.983Z,1010.83
2018-02-24T06:36:08.848Z,1010.99
2018-02-24T06:37:22.865Z,1010.87
2018-02-24T06:38:37.102Z,1010.88
2018-02-24T06:39:51.088Z,1010.84
2018-02-24T06:41:04.834Z,1010.85
2018-02-24T06:42:19.056Z,1010.91
2018-02-24T06:43:32.817Z,1010.97
2018-02-24T06:44:46.847Z,1010.95
2018-02-24T06:46:00.824Z,1010.93
2018-02-24T06:47:15.083Z,1011.02
2018-02-24T06:48:29.328Z,1011.05
2018-02-24T06:49:43.816Z,1011.13
2018-02-24T06:50:58.060Z,1011.01
2018-02-24T06:52:12.025Z,1011.06
2018-02-24T06:53:26.495Z,1010.98
2018-02-24T06:54:40.785Z,1010.96
2018-02-24T06:55:55.116Z,1010.96
2018-02-24T06:57:09.628Z,1010.96
2018-02-24T06:58:23.854Z,1010.98
2018-02-24T06:59:37.854Z,1011.01
2018-02-24T07:00:52.562Z,1010.95
2018-02-24T07:02:06.564Z,1010.94
2018-02-24T07:03:20.320Z,1011.01
2018-02-24T07:04:34.547Z,1011.01
2018-02-24T07:05:48.788Z,1011.09
2018-02-24T07:07:02.797Z,1011.12
2018-02-24T07:08:17.526Z,1011.03
2018-02-24T07:09:31.619Z,1011.1
2018-02-24T07:10:45.856Z,1011.19
2018-02-24T07:11:59.376Z,1011.17
2018-02-24T07:13:13.399Z,1011.15
2018-02-24T07:14:27.397Z,1011.12
2018-02-24T07:15:41.849Z,1011.19
2018-02-24T07:16:56.076Z,1011.26
2018-02-24T07:18:10.305Z,1011.19
2018-02-24T07:19:24.369Z,1011.25
2018-02-24T07:20:37.896Z,1011.25
2018-02-24T07:21:51.898Z,1011.28
2018-02-24T07:23:05.904Z,1011.18
2018-02-24T07:24:19.880Z,1011.24
2018-02-24T07:25:33.893Z,1011.26
2018-02-24T07:26:47.934Z,1011.31
2018-02-24T07:28:01.956Z,1011.23
2018-02-24T07:29:16.241Z,1011.35
2018-02-24T07:30:30.292Z,1011.32
2018-02-24T07:31:44.024Z,1011.31
2018-02-24T07:32:58.492Z,1011.37
2018-02-24T07:34:12.578Z,1011.31
2018-02-24T07:35:26.495Z,1011.35
2018-02-24T07:36:40.513Z,1011.25
2018-02-24T07:37:55.222Z,1011.31
2018-02-24T07:39:09.710Z,1011.33
2018-02-24T07:40:24.000Z,1011.3
2018-02-24T07:41:38.237Z,1011.5
2018-02-24T07:42:52.615Z,1011.34
2018-02-24T07:44:07.142Z,1011.39
2018-02-24T07:45:20.664Z,1011.37
2018-02-24T07:46:34.658Z,1011.41
2018-02-24T07:47:48.968Z,1011.48
2018-02-24T07:49:03.223Z,1011.54
2018-02-24T07:50:17.343Z,1011.53
2018-02-24T07:51:31.341Z,1011.44
2018-02-24T07:52:45.364Z,1011.35
2018-02-24T07:53:59.713Z,1011.48
2018-02-24T07:55:13.237Z,1011.45
2018-02-24T07:56:27.306Z,1011.46
2018-02-24T07:57:42.065Z,1011.66
2018-02-24T07:58:56.334Z,1011.59
2018-02-24T08:00:10.345Z,1011.55
2018-02-24T08:01:24.364Z,1011.43
2018-02-24T08:02:38.166Z,1011.45
2018-02-24T08:03:52.414Z,1011.61
2018-02-24T08:05:06.441Z,1011.5
2018-02-24T08:06:21.148Z,1011.57
2018-02-24T08:07:35.401Z,1011.73
2018-02-24T08:08:49.415Z,1011.47
2018-02-24T08:10:03.672Z,1011.49
2018-02-24T08:11:17.937Z,1011.57
2018-02-24T08:12:32.211Z,1011.59
2018-02-24T08:13:46.464Z,1011.49
2018-02-24T08:15:00.484Z,1011.56
2018-02-24T08:16:14.648Z,1011.74
2018-02-24T08:17:28.896Z,1011.59
2018-02-24T08:18:42.943Z,1011.55
2018-02-24T08:19:56.984Z,1011.61
2018-02-24T08:21:11.520Z,1011.53
2018-02-24T08:22:25.593Z,1011.6
2018-02-24T08:23:39.648Z,1011.43
2018-02-24T08:24:53.653Z,1011.42
2018-02-24T08:26:07.664Z,1011.53
2018-02-24T08:27:21.912Z,1011.46
2018-02-24T08:28:35.921Z,1011.46
2018-02-24T08:29:50.434Z,1011.28
2018-02-24T08:31:04.931Z,1011.39
2018-02-24T08:32:19.160Z,1011.63
2018-02-24T08:33:33.679Z,1011.45
2018-02-24T08:34:47.727Z,1011.42
2018-02-24T08:36:01.998Z,1011.4
2018-02-24T08:37:16.006Z,1011.49
2018-02-24T08:38:29.497Z,1011.56
2018-02-24T08:39:43.216Z,1011.35
2018-02-24T08:40:57.246Z,1011.53
2018-02-24T08:42:11.006Z,1011.33
2018-02-24T08:43:24.505Z,1011.41
2018-02-24T08:44:38.261Z,1011.41
2018-02-24T08:45:52.274Z,1011.52
2018-02-24T08:47:06.324Z,1011.47
2018-02-24T08:48:20.364Z,1011.55
2018-02-24T08:49:33.755Z,1011.58
2018-02-24T08:50:47.760Z,1011.4
2018-02-24T08:52:01.515Z,1011.5
2018-02-24T08:53:16.028Z,1011.41
2018-02-24T08:54:30.546Z,1011.41
2018-02-24T08:55:44.312Z,1011.31
2018-02-24T08:56:58.573Z,1011.46
2018-02-24T08:58:12.576Z,1011.33
2018-02-24T08:59:26.508Z,1011.46
2018-02-24T09:00:40.058Z,1011.43
2018-02-24T09:01:54.761Z,1011.45
2018-02-24T09:03:09.248Z,1011.38
2018-02-24T09:04:24.056Z,1011.31
2018-02-24T09:05:37.809Z,1011.37
2018-02-24T09:06:52.084Z,1011.37
2018-02-24T09:08:06.107Z,1011.35
2018-02-24T09:09:20.614Z,1011.35
2018-02-24T09:10:34.427Z,1011.35
2018-02-24T09:11:48.673Z,1011.42
2018-02-24T09:13:02.719Z,1011.32
2018-02-24T09:14:16.588Z,1011.33
2018-02-24T09:15:30.837Z,1011.43
2018-02-24T09:16:44.582Z,1011.23
2018-02-24T09:17:58.890Z,1011.36
2018-02-24T09:19:13.131Z,1011.45
2018-02-24T09:20:27.647Z,1011.22
2018-02-24T09:21:41.928Z,1011.23
2018-02-24T09:22:55.572Z,1011.19
2018-02-24T09:24:10.108Z,1011.21
2018-02-24T09:25:24.126Z,1011.26
2018-02-24T09:26:38.435Z,1011.12
2018-02-24T09:27:52.431Z,1011.17
2018-02-24T09:29:06.684Z,1011.23
2018-02-24T09:30:21.243Z,1011.11
2018-02-24T09:31:34.800Z,1011.1
2018-02-24T09:32:48.335Z,1011.17
2018-02-24T09:34:02.834Z,1011.16
2018-02-24T09:35:16.883Z,1011.13
2018-02-24T09:36:30.363Z,1011.26
2018-02-24T09:37:44.380Z,1011.15
2018-02-24T09:38:58.388Z,1011.08
2018-02-24T09:40:12.909Z,1011.24
2018-02-24T09:41:27.138Z,1011.14
2018-02-24T09:42:41.887Z,1011.23
2018-02-24T09:43:55.698Z,1011.25
2018-02-24T09:45:10.347Z,1011.2
2018-02-24T09:46:24.743Z,1011.24
2018-02-24T09:47:38.991Z,1011.11
2018-02-24T09:48:53.263Z,1011.22
2018-02-24T09:50:07.749Z,1011.01
2018-02-24T09:51:21.748Z,1011.09
2018-02-24T09:52:36.269Z,1011.12
2018-02-24T09:53:50.031Z,1011.31
2018-02-24T09:55:03.746Z,1011.33
2018-02-24T09:56:17.878Z,1011.04
2018-02-24T09:57:31.869Z,1011.21
2018-02-24T09:58:45.920Z,1011.05
2018-02-24T09:59:59.669Z,1011.14
2018-02-24T10:01:14.205Z,1011.33
2018-02-24T10:02:28.288Z,1010.97
2018-02-24T10:03:41.810Z,1011.28
2018-02-24T10:04:55.658Z,1011.18
2018-02-24T10:06:09.486Z,1011.34
2018-02-24T10:07:23.957Z,1011.28
2018-02-24T10:08:37.523Z,1011.2
2018-02-24T10:09:52.239Z,1011.01
2018-02-24T10:11:06.982Z,1011.26
2018-02-24T10:12:21.308Z,1011.19
2018-02-24T10:13:35.323Z,1011.07
2018-02-24T10:14:49.394Z,1011.24
2018-02-24T10:16:03.817Z,1011
2018-02-24T10:17:17.836Z,1011
2018-02-24T10:18:32.647Z,1010.87
2018-02-24T10:19:46.660Z,1011.03
2018-02-24T10:21:00.898Z,1011.03
2018-02-24T10:22:15.382Z,1010.95
2018-02-24T10:23:29.611Z,1011.31
2018-02-24T10:24:44.059Z,1010.89
2018-02-24T10:25:59.132Z,1010.95
2018-02-24T10:27:13.379Z,1011.05
2018-02-24T10:28:27.883Z,1011.07
2018-02-24T10:29:42.350Z,1011.11
2018-02-24T10:30:56.805Z,1011.08
2018-02-24T10:32:10.851Z,1011
2018-02-24T10:33:24.828Z,1010.83
2018-02-24T10:34:39.600Z,1010.86
2018-02-24T10:35:53.905Z,1011.2
2018-02-24T10:37:07.440Z,1011.13
2018-02-24T10:38:22.230Z,1010.86
2018-02-24T10:39:36.268Z,1010.88
2018-02-24T10:40:50.322Z,1010.88
2018-02-24T10:42:04.681Z,1011.16
2018-02-24T10:43:18.992Z,1010.89
2018-02-24T10:44:33.072Z,1010.97
2018-02-24T10:45:47.829Z,1011.13
2018-02-24T10:47:02.123Z,1010.97
2018-02-24T10:48:16.695Z,1010.98
2018-02-24T10:49:30.728Z,1011.19
2018-02-24T10:50:44.756Z,1010.8
2018-02-24T10:51:59.257Z,1010.87
2018-02-24T10:53:13.287Z,1011.12
2018-02-24T10:54:27.260Z,1010.95
2018-02-24T10:55:41.511Z,1010.89
2018-02-24T10:56:55.798Z,1010.84
2018-02-24T10:58:10.041Z,1011.1
2018-02-24T10:59:24.492Z,1010.8
2018-02-24T11:00:38.506Z,1010.81
2018-02-24T11:01:53.293Z,1010.96
2018-02-24T11:03:07.652Z,1010.91
2018-02-24T11:04:21.931Z,1010.93
2018-02-24T11:05:35.943Z,1010.9
2018-02-24T11:06:50.065Z,1010.72
2018-02-24T11:08:04.802Z,1010.74
2018-02-24T11:09:19.326Z,1011.1
2018-02-24T11:10:33.866Z,1010.87
2018-02-24T11:11:47.890Z,1010.87
2018-02-24T11:13:01.893Z,1010.75
2018-02-24T11:14:16.059Z,1010.98
2018-02-24T11:15:30.309Z,1010.79
2018-02-24T11:16:44.104Z,1010.79
2018-02-24T11:17:58.367Z,1010.84
2018-02-24T11:19:13.129Z,1011.07
2018-02-24T11:20:26.945Z,1011.09
2018-02-24T11:21:41.211Z,1010.63
2018-02-24T11:22:55.034Z,1010.79
2018-02-24T11:24:09.406Z,1010.68
2018-02-24T11:25:23.667Z,1010.72
2018-02-24T11:26:37.419Z,1010.92
2018-02-24T11:27:51.953Z,1010.89
2018-02-24T11:29:06.524Z,1010.38
2018-02-24T11:30:21.291Z,1010.81
2018-02-24T11:31:35.318Z,1010.97
2018-02-24T11:32:49.659Z,1010.63
2018-02-24T11:34:03.456Z,1010.81
2018-02-24T11:35:17.435Z,1010.64
2018-02-24T11:36:31.280Z,1010.66
2018-02-24T11:37:46.058Z,1010.53
2018-02-24T11:39:00.593Z,1010.47
2018-02-24T11:40:14.599Z,1010.47
2018-02-24T11:41:28.406Z,1010.6
2018-02-24T11:42:42.914Z,1010.55
2018-02-24T11:43:57.176Z,1010.49
2018-02-24T11:45:10.933Z,1010.47
2018-02-24T11:46:24.712Z,1010.8
2018-02-24T11:47:38.861Z,1010.57
2018-02-24T11:48:52.880Z,1010.61
2018-02-24T11:50:06.890Z,1010.42
2018-02-24T11:51:21.220Z,1010.52
2018-02-24T11:52:35.500Z,1010.5
2018-02-24T11:53:49.551Z,1010.36
2018-02-24T11:55:03.311Z,1010.42
2018-02-24T11:56:16.606Z,1010.47
2018-02-24T11:57:30.847Z,1010.44
2018-02-24T11:58:45.108Z,1010.42
2018-02-24T11:59:58.942Z,1010.5
2018-02-24T12:01:12.731Z,1010.4
2018-02-24T12:02:27.196Z,1010.51
2018-02-24T12:03:41.435Z,1010.56
2018-02-24T12:04:55.972Z,1010.64
2018-02-24T12:06:10.233Z,1010.47
2018-02-24T12:07:25.014Z,1010.48
2018-02-24T12:08:38.834Z,1010.62
2018-02-24T12:09:53.702Z,1010.86
2018-02-24T12:11:07.723Z,1010.6
2018-02-24T12:12:22.196Z,1010.43
2018-02-24T12:13:36.628Z,1010.59
2018-02-24T12:14:51.286Z,1010.4
2018-02-24T12:16:04.839Z,1010.54
2018-02-24T12:17:18.655Z,1010.69
2018-02-24T12:18:32.943Z,1010.54
2018-02-24T12:19:47.237Z,1010.51
2018-02-24T12:21:01.500Z,1010.69
2018-02-24T12:22:16.031Z,1010.51
2018-02-24T12:23:30.359Z,1010.36
2018-02-24T12:24:45.123Z,1010.44
2018-02-24T12:25:59.150Z,1010.46
2018-02-24T12:27:13.175Z,1010.55
2018-02-24T12:28:27.209Z,1010.57
2018-02-24T12:29:41.235Z,1010.52
2018-02-24T12:30:55.250Z,1010.26
2018-02-24T12:32:09.537Z,1010.44
2018-02-24T12:33:23.796Z,1010.31
2018-02-24T12:34:37.805Z,1010.75
2018-02-24T12:35:51.862Z,1010.52
2018-02-24T12:37:05.659Z,1010.54
2018-02-24T12:38:19.734Z,1010.7
2018-02-24T12:39:34.026Z,1010.45
2018-02-24T12:40:47.544Z,1010.35
2018-02-24T12:42:02.328Z,1010.48
2018-02-24T12:43:16.511Z,1010.55
2018-02-24T12:44:30.540Z,1010.76
2018-02-24T12:45:44.572Z,1010.34
2018-02-24T12:46:59.063Z,1010.34
2018-02-24T12:48:13.116Z,1010.65
2018-02-24T12:49:27.425Z,1010.34
2018-02-24T12:50:41.522Z,1010.28
2018-02-24T12:51:55.327Z,1010.71
2018-02-24T12:53:09.369Z,1010.47
2018-02-24T12:54:23.670Z,1010.66
2018-02-24T12:55:38.503Z,1010.26
2018-02-24T12:56:52.552Z,1010.41
2018-02-24T12:58:06.889Z,1010.84
2018-02-24T12:59:20.962Z,1010.46
2018-02-24T13:00:35.316Z,1010.14
2018-02-24T13:01:49.897Z,1010.51
2018-02-24T13:03:03.968Z,1010.32
2018-02-24T13:04:17.813Z,1010.21
2018-02-24T13:05:32.091Z,1010.31
2018-02-24T13:06:46.634Z,1010.56
2018-02-24T13:08:01.160Z,1010.31
2018-02-24T13:09:15.216Z,1010.54
2018-02-24T13:10:29.313Z,1010.37
2018-02-24T13:11:43.637Z,1010.73
2018-02-24T13:12:57.690Z,1010.28
2018-02-24T13:14:11.988Z,1010.34
2018-02-24T13:15:26.274Z,1010.2
2018-02-24T13:16:40.935Z,1010.47
2018-02-24T13:17:54.973Z,1010.34
2018-02-24T13:19:09.069Z,1010.64
2018-02-24T13:20:23.151Z,1010.43
2018-02-24T13:21:37.539Z,1010.32
2018-02-24T13:22:51.825Z,1010.39
2018-02-24T13:24:06.131Z,1010.55
2018-02-24T13:25:19.994Z,1010.61
2018-02-24T13:26:34.687Z,1010.61
2018-02-24T13:27:48.763Z,1010.62
2018-02-24T13:29:02.851Z,1010.46
2018-02-24T13:30:17.010Z,1010.5
2018-02-24T13:31:31.078Z,1010.3
2018-02-24T13:32:45.904Z,1010.52
2018-02-24T13:34:00.484Z,1010.1
2018-02-24T13:35:15.055Z,1010.28
2018-02-24T13:36:29.366Z,1010.58
2018-02-24T13:37:43.933Z,1010.5
2018-02-24T13:38:58.569Z,1010.75
2018-02-24T13:40:13.120Z,1010.55
2018-02-24T13:41:27.876Z,1010.37
2018-02-24T13:42:42.651Z,1010.26
2018-02-24T13:43:56.710Z,1010.35
2018-02-24T13:45:10.988Z,1010.7
2018-02-24T13:46:25.503Z,1010.55
2018-02-24T13:47:39.326Z,1010.34
2018-02-24T13:48:53.632Z,1010.47
2018-02-24T13:50:07.276Z,1010.39
2018-02-24T13:51:21.109Z,1010.32
2018-02-24T13:52:34.683Z,1011.13
2018-02-24T13:53:48.741Z,1010.63
2018-02-24T13:55:03.612Z,1010.61
2018-02-24T13:56:17.957Z,1010.49
2018-02-24T13:57:32.274Z,1010.83
2018-02-24T13:58:46.069Z,1010.73
2018-02-24T14:00:00.622Z,1010.73
2018-02-24T14:01:14.896Z,1010.65
2018-02-24T14:02:29.244Z,1010.77
2018-02-24T14:03:43.609Z,1010.96
2018-02-24T14:04:57.680Z,1010.74
2018-02-24T14:06:11.782Z,1010.79
2018-02-24T14:07:25.652Z,1010.93
2018-02-24T14:08:40.237Z,1010.89
2018-02-24T14:09:54.557Z,1010.72
2018-02-24T14:11:08.467Z,1011.25
2018-02-24T14:12:23.203Z,1010.64
2018-02-24T14:13:37.795Z,1010.74
2018-02-24T14:14:52.445Z,1010.53
2018-02-24T14:16:06.841Z,1010.79
2018-02-24T14:17:20.924Z,1011.41
2018-02-24T14:18:35.027Z,1010.96
2018-02-24T14:19:49.286Z,1010.69
2018-02-24T14:21:03.405Z,1011.08
2018-02-24T14:22:18.098Z,1010.91
2018-02-24T14:23:32.691Z,1011.11
2018-02-24T14:24:47.527Z,1010.84
2018-02-24T14:26:01.870Z,1010.77
2018-02-24T14:27:15.900Z,1011.06
2018-02-24T14:28:29.494Z,1011
2018-02-24T14:29:44.285Z,1010.72
2018-02-24T14:30:59.445Z,1010.76
2018-02-24T14:32:14.217Z,1010.82
2018-02-24T14:33:28.775Z,1010.88
2018-02-24T14:34:43.558Z,1011.03
2018-02-24T14:35:57.840Z,1010.6
2018-02-24T14:37:12.633Z,1010.94
2018-02-24T14:38:26.940Z,1011.11
2018-02-24T14:39:41.022Z,1010.94
2018-02-24T14:40:55.668Z,1010.67
2018-02-24T14:42:10.526Z,1011.03
2018-02-24T14:43:24.766Z,1010.99
2018-02-24T14:44:38.813Z,1011.13
2018-02-24T14:45:52.617Z,1010.64
2018-02-24T14:47:07.347Z,1010.8
2018-02-24T14:48:21.871Z,1010.85
2018-02-24T14:49:35.922Z,1010.77
2018-02-24T14:50:50.016Z,1011.23
2018-02-24T14:52:04.563Z,1011
2018-02-24T14:53:18.851Z,1010.73
2018-02-24T14:54:33.374Z,1011.2
2018-02-24T14:55:47.375Z,1010.87
2018-02-24T14:57:02.024Z,1011.14
2018-02-24T14:58:16.322Z,1010.79
2018-02-24T14:59:30.331Z,1011.12
2018-02-24T15:00:44.349Z,1011.3
2018-02-24T15:01:57.878Z,1011.3
2018-02-24T15:03:12.146Z,1010.94